Seabulk Arctic — WCY7054 — position and weather

sailwx.info

Track history (hours):
 
Tides and Currents Weather Stations Pressure Air Temp Water Temp Dewpoint Dewpoint Depression Visibility Wind Speed Wind Dir Waves Ship Positions

Seabulk Arctic

Owner: LIGHTSHIP TANKERS IV LLC, FORT LAUDERDALE, FL. More information available from US FCC via Universal Licensing System and Coast Guard Vessel Documentation Center.

Last reported at 2016-Aug-18 06:28 UTC. Time now 2016-Aug-29 18:05 UTC.
Position N 29°09' W 093°40'.
Warning: this ship's position is 11 days out of date.

Type: Tanker. MMSI: 366826000.

Date/timePositionNaut miles runAvg speedWind from/ knotsBaromVisibWave heightAir tempDewpointWater temp
2016-Aug-18 06:28N 29°09' W 093°40'2010.6
2016-Aug-18 04:33N 29°29' W 093°40'1110.6
2016-Aug-18 03:33N 29°37' W 093°49'1010.3
2016-Aug-18 02:33N 29°46' W 093°55'7 7.2
2016-Aug-18 01:33N 29°53' W 093°55'6 5.7
2016-Aug-18 00:28N 29°59' W 093°53'5 5.3
2016-Aug-17 23:33N 30°01' W 093°58'1 0.6
2016-Aug-17 22:33N 30°00' W 093°59'0 0.0
2016-Aug-16 09:17N 30°00' W 093°59'1 2.0
2016-Aug-16 08:33N 30°01' W 093°57'6 6.3
2016-Aug-16 07:33N 29°57' W 093°52'21 7.0
2016-Aug-16 04:33N 29°36' W 093°48'5 3.9
2016-Aug-16 03:24N 29°34' W 093°43'0 0.0
2016-Aug-15 23:28N 29°34' W 093°43'0 0.0
2016-Aug-15 22:31N 29°34' W 093°43'0 0.0
2016-Aug-15 16:28N 29°34' W 093°43'  
2016-Aug-11 01:10N 25°44' W 079°59'710.6
2016-Aug-11 00:33N 25°51' W 079°59'1110.6
2016-Aug-10 23:33N 26°01' W 079°58'1110.6
2016-Aug-10 22:33N 26°12' W 079°57'1110.8
2016-Aug-10 21:33N 26°22' W 079°56'1110.8
2016-Aug-10 20:33N 26°33' W 079°55'1110.6
2016-Aug-10 19:32N 26°44' W 079°55'1010.3
2016-Aug-10 18:33N 26°54' W 079°55'10 9.9
2016-Aug-10 17:33N 27°04' W 079°54'  
2016-Aug-08 12:16N 37°54' W 074°44'3813.9
2016-Aug-08 09:33N 38°32' W 074°48'1514.8
2016-Aug-08 08:33N 38°44' W 074°59'1413.6
2016-Aug-08 07:34N 38°56' W 075°06'1414.0
2016-Aug-08 06:33N 39°09' W 075°15'  
Track history (hours):
 
Tides and Currents Weather Stations Pressure Air Temp Water Temp Dewpoint Dewpoint Depression Visibility Wind Speed Wind Dir Waves Ship Positions

Seabulk Arctic

Owner: LIGHTSHIP TANKERS IV LLC, FORT LAUDERDALE, FL. More information available from US FCC via Universal Licensing System and Coast Guard Vessel Documentation Center.

Last reported at 2016-Aug-18 06:28 UTC. Time now 2016-Aug-29 18:05 UTC.
Position N 29°09' W 093°40'.
Warning: this ship's position is 11 days out of date.

Type: Tanker. MMSI: 366826000.

Date/timePositionNaut miles runAvg speedWind from/ knotsBaromVisibWave heightAir tempDewpointWater temp
2016-Aug-18 06:28N 29°09' W 093°40'2010.6
2016-Aug-18 04:33N 29°29' W 093°40'1110.6
2016-Aug-18 03:33N 29°37' W 093°49'1010.3
2016-Aug-18 02:33N 29°46' W 093°55'7 7.2
2016-Aug-18 01:33N 29°53' W 093°55'6 5.7
2016-Aug-18 00:28N 29°59' W 093°53'5 5.3
2016-Aug-17 23:33N 30°01' W 093°58'1 0.6
2016-Aug-17 22:33N 30°00' W 093°59'0 0.0
2016-Aug-16 09:17N 30°00' W 093°59'1 2.0
2016-Aug-16 08:33N 30°01' W 093°57'6 6.3
2016-Aug-16 07:33N 29°57' W 093°52'21 7.0
2016-Aug-16 04:33N 29°36' W 093°48'5 3.9
2016-Aug-16 03:24N 29°34' W 093°43'0 0.0
2016-Aug-15 23:28N 29°34' W 093°43'0 0.0
2016-Aug-15 22:31N 29°34' W 093°43'0 0.0
2016-Aug-15 16:28N 29°34' W 093°43'  
2016-Aug-11 01:10N 25°44' W 079°59'710.6
2016-Aug-11 00:33N 25°51' W 079°59'1110.6
2016-Aug-10 23:33N 26°01' W 079°58'1110.6
2016-Aug-10 22:33N 26°12' W 079°57'1110.8
2016-Aug-10 21:33N 26°22' W 079°56'1110.8
2016-Aug-10 20:33N 26°33' W 079°55'1110.6
2016-Aug-10 19:32N 26°44' W 079°55'1010.3
2016-Aug-10 18:33N 26°54' W 079°55'10 9.9
2016-Aug-10 17:33N 27°04' W 079°54'  
2016-Aug-08 12:16N 37°54' W 074°44'3813.9
2016-Aug-08 09:33N 38°32' W 074°48'1514.8
2016-Aug-08 08:33N 38°44' W 074°59'1413.6
2016-Aug-08 07:34N 38°56' W 075°06'1414.0
2016-Aug-08 06:33N 39°09' W 075°15'  

Dump ship's entire track history